Time;durP1;ratioP1;P1;durP2;ratioP2;P2;SDS_P1;SDS_P2;PMS_P1;PMS_P2;Temp;Humidity;BMP_temperature;BMP_pressure;BME280_temperature;BME280_humidity;BME280_pressure;Samples;Min_cycle;Max_cycle;Signal;HPM_P1;HPM_P2
2023/01/11 00:01:21;;;;;;;1.75;0.93;;;;;;;6.09;72.41;99147.25;3114618;28;20068;-69
2023/01/11 00:02:54;;;;;;;3.22;1.23;;;;;;;6.05;72.67;99148.25;3112327;28;20067;-70
2023/01/11 00:04:28;;;;;;;2.05;1.30;;;;;;;6.08;72.38;99155.91;3111859;28;20061;-69
2023/01/11 00:06:01;;;;;;;2.30;0.93;;;;;;;6.07;72.66;99154.22;3114585;28;20059;-69
2023/01/11 00:07:33;;;;;;;5.47;1.80;;;;;;;6.08;72.54;99160.22;3114433;28;20077;-69
2023/01/11 00:09:05;;;;;;;2.40;0.98;;;;;;;6.09;72.60;99160.19;3114895;28;20123;-69
2023/01/11 00:10:38;;;;;;;1.08;0.65;;;;;;;5.23;72.22;99028.97;3114409;28;20061;-69
2023/01/11 00:12:13;;;;;;;1.95;1.05;;;;;;;6.10;72.50;99161.03;3116616;28;20516;-68
2023/01/11 00:13:45;;;;;;;3.83;1.08;;;;;;;6.11;72.31;99170.47;3114515;28;20402;-68
2023/01/11 00:15:17;;;;;;;1.27;0.60;;;;;;;6.12;72.25;99169.56;3114665;28;20068;-68
2023/01/11 00:16:49;;;;;;;1.60;0.65;;;;;;;5.99;72.27;99148.50;3114513;28;20140;-68
2023/01/11 00:18:21;;;;;;;2.33;1.30;;;;;;;6.13;72.45;99164.34;3114451;28;20156;-69
2023/01/11 00:19:53;;;;;;;2.72;0.90;;;;;;;6.14;72.15;99163.44;3114703;28;20049;-69
2023/01/11 00:21:25;;;;;;;3.17;1.00;;;;;;;6.15;72.09;99169.44;3114404;28;20053;-69
2023/01/11 00:22:57;;;;;;;9.67;4.80;;;;;;;6.17;72.05;99174.56;3114503;28;20471;-69
2023/01/11 00:24:29;;;;;;;5.65;2.78;;;;;;;6.18;72.00;99179.66;3114565;28;20312;-69
2023/01/11 00:26:04;;;;;;;3.42;1.80;;;;;;;6.20;71.88;99183.03;3114696;28;20056;-69
2023/01/11 00:27:36;;;;;;;3.13;1.45;;;;;;;6.21;71.86;99181.28;3114407;28;20057;-69
2023/01/11 00:29:08;;;;;;;4.28;1.67;;;;;;;6.20;71.68;99180.44;3114781;28;20127;-69
2023/01/11 00:30:39;;;;;;;4.03;1.98;;;;;;;6.16;71.36;99178.91;3114383;28;20103;-69
2023/01/11 00:32:29;;;;;;;3.15;1.60;;;;;;;6.16;71.23;99181.47;3115162;28;20057;-69
2023/01/11 00:34:01;;;;;;;2.38;1.00;;;;;;;6.20;71.26;99188.22;3110251;28;20156;-69
2023/01/11 00:35:32;;;;;;;1.83;0.80;;;;;;;6.12;71.24;99177.31;3109386;28;20107;-69
2023/01/11 00:37:04;;;;;;;1.42;0.60;;;;;;;5.94;70.59;99147.81;3109552;28;20566;-69
2023/01/11 00:38:50;;;;;;;1.38;0.80;;;;;;;6.21;70.77;99189.91;3109285;28;20092;-69
2023/01/11 00:40:23;;;;;;;2.10;0.68;;;;;;;6.23;70.36;99187.25;3109808;28;20099;-69
2023/01/11 00:49:13;;;;;;;8.60;4.28;;;;;;;6.21;70.36;99195.09;3105980;28;20081;-69
2023/01/11 00:50:45;;;;;;;6.93;3.33;;;;;;;6.11;70.08;99175.63;3108130;28;20115;-68
2023/01/11 00:52:16;;;;;;;4.93;2.22;;;;;;;6.24;69.95;99188.94;3109926;28;20057;-69
2023/01/11 00:53:49;;;;;;;4.28;2.10;;;;;;;6.25;70.20;99195.81;3109355;28;20496;-69
2023/01/11 00:55:22;;;;;;;3.10;1.73;;;;;;;6.25;70.17;99193.22;3109602;28;20064;-70
2023/01/11 00:56:54;;;;;;;2.97;1.63;;;;;;;6.27;70.04;99204.34;3109584;28;20065;-68
2023/01/11 00:58:27;;;;;;;2.35;0.98;;;;;;;6.27;69.98;99199.16;3109050;28;20089;-70
2023/01/11 00:59:58;;;;;;;;;;;;;;;6.22;69.90;99203.69;3109777;28;20054;-69
2023/01/11 01:01:30;;;;;;;0.80;0.45;;;;;;;6.21;70.17;99204.56;3110448;28;20010;-69
2023/01/11 01:03:02;;;;;;;3.03;1.20;;;;;;;6.23;69.80;99215.69;3110682;28;20057;-68
2023/01/11 01:04:34;;;;;;;1.63;0.70;;;;;;;6.24;69.83;99213.06;3110614;28;20054;-69
2023/01/11 01:06:06;;;;;;;1.30;0.65;;;;;;;6.19;69.75;99196.03;3109700;28;20057;-69
2023/01/11 01:07:37;;;;;;;2.28;1.00;;;;;;;6.26;69.76;99205.25;3109697;28;20064;-69
2023/01/11 01:09:09;;;;;;;1.38;0.60;;;;;;;6.26;69.58;99200.91;3111995;28;20091;-69
2023/01/11 01:10:41;;;;;;;1.52;0.60;;;;;;;6.26;69.65;99200.91;3111776;28;20049;-69
2023/01/11 01:14:24;;;;;;;1.58;0.88;;;;;;;5.84;69.44;99133.53;3112807;28;20053;-69
2023/01/11 01:15:57;;;;;;;1.75;0.80;;;;;;;6.25;69.46;99199.22;3111548;28;20053;-68
2023/01/11 01:17:29;;;;;;;2.10;0.93;;;;;;;6.25;69.37;99195.81;3111803;28;20049;-69
2023/01/11 01:19:01;;;;;;;2.63;1.15;;;;;;;6.25;69.39;99198.41;3112222;28;20107;-69
2023/01/11 01:20:34;;;;;;;1.60;0.85;;;;;;;6.26;69.16;99200.91;3112483;28;20061;-69
2023/01/11 01:22:06;;;;;;;2.50;1.20;;;;;;;6.25;69.53;99196.66;3112816;28;20061;-68
2023/01/11 01:23:37;;;;;;;4.80;1.90;;;;;;;6.27;69.16;99199.16;3111764;28;20087;-71
2023/01/11 01:25:09;;;;;;;3.15;0.88;;;;;;;6.27;69.45;99201.75;3111715;28;20077;-69
2023/01/11 01:26:41;;;;;;;2.53;0.98;;;;;;;6.26;69.27;99211.25;3112106;28;20057;-69
2023/01/11 01:28:13;;;;;;;0.90;0.60;;;;;;;6.25;69.23;99209.56;3112309;28;20042;-69
2023/01/11 01:29:47;;;;;;;2.38;1.10;;;;;;;6.26;69.38;99207.81;3111412;28;20123;-69
2023/01/11 01:31:19;;;;;;;2.67;0.77;;;;;;;6.24;69.02;99202.72;3112017;28;20060;-69
2023/01/11 01:32:51;;;;;;;1.85;0.85;;;;;;;6.25;69.25;99203.56;3111547;28;20087;-69
2023/01/11 01:34:22;;;;;;;2.58;1.10;;;;;;;5.90;68.95;99148.78;3112210;28;20049;-69
2023/01/11 01:35:54;;;;;;;3.13;1.60;;;;;;;6.24;69.22;99201.88;3112601;28;20045;-69
2023/01/11 01:37:25;;;;;;;2.67;1.05;;;;;;;6.24;69.15;99210.50;3111587;28;20121;-69
2023/01/11 01:38:59;;;;;;;4.53;2.20;;;;;;;6.27;69.25;99204.34;3112516;28;20045;-69
2023/01/11 01:40:31;;;;;;;3.15;1.40;;;;;;;6.27;68.93;99199.16;3111788;28;20053;-69
2023/01/11 01:42:04;;;;;;;2.80;1.23;;;;;;;6.28;69.27;99198.28;3107640;28;20164;-68
2023/01/11 01:43:50;;;;;;;2.00;0.82;;;;;;;6.21;68.84;99192.50;3111294;28;20076;-69
2023/01/11 01:45:25;;;;;;;2.45;1.25;;;;;;;6.25;68.88;99201.81;3103067;28;20131;-68
2023/01/11 01:46:56;;;;;;;2.33;1.02;;;;;;;6.26;68.96;99202.66;3111068;28;20122;-69
2023/01/11 01:48:28;;;;;;;2.90;1.00;;;;;;;6.22;68.76;99194.19;3111007;28;20141;-69
2023/01/11 01:50:04;;;;;;;2.78;1.10;;;;;;;6.23;68.50;99200.19;3099610;28;20058;-69
2023/01/11 01:51:42;;;;;;;1.30;0.73;;;;;;;6.26;68.42;99206.09;3110567;28;20179;-69
2023/01/11 01:53:20;;;;;;;3.60;0.80;;;;;;;6.11;68.29;99175.63;3111166;28;20053;-69
2023/01/11 01:54:51;;;;;;;6.80;0.77;;;;;;;6.26;68.47;99213.84;3110977;28;20058;-69
2023/01/11 01:56:28;;;;;;;2.58;0.70;;;;;;;6.26;68.14;99202.66;3110583;28;20081;-69
2023/01/11 01:58:02;;;;;;;2.25;1.00;;;;;;;6.25;67.83;99207.00;3110957;28;20154;-69
2023/01/11 01:59:33;;;;;;;2.40;0.80;;;;;;;6.25;67.71;99203.56;3110735;28;20053;-69
2023/01/11 02:02:54;;;;;;;1.08;0.57;;;;;;;6.24;67.33;99209.63;3111025;28;20052;-69
2023/01/11 02:04:28;;;;;;;2.22;0.85;;;;;;;6.24;66.89;99199.28;3111517;28;20076;-69
2023/01/11 02:06:00;;;;;;;1.80;0.60;;;;;;;6.25;66.87;99203.56;3110878;28;20057;-70
2023/01/11 02:07:34;;;;;;;1.70;0.68;;;;;;;6.27;66.98;99199.16;3110602;28;20326;-69
2023/01/11 02:09:08;;;;;;;;;;;;;;;6.21;66.68;99205.44;3111664;28;20092;-69
2023/01/11 02:10:41;;;;;;;0.40;0.30;;;;;;;6.22;66.71;99214.03;3110798;28;20413;-70
2023/01/11 02:12:14;;;;;;;1.83;0.80;;;;;;;6.25;66.51;99211.31;3107964;28;20110;-69
2023/01/11 02:13:46;;;;;;;1.88;0.30;;;;;;;6.25;66.32;99211.31;3111039;28;20521;-69
2023/01/11 02:15:20;;;;;;;0.57;0.28;;;;;;;6.25;65.76;99206.16;3110680;28;20140;-69
2023/01/11 02:16:54;;;;;;;0.73;0.40;;;;;;;6.30;65.72;99209.38;3110644;28;20061;-69
2023/01/11 02:18:26;;;;;;;1.25;0.40;;;;;;;6.07;65.55;99169.75;3109873;28;20331;-69
2023/01/11 02:20:06;;;;;;;3.58;0.35;;;;;;;6.31;65.62;99209.34;3110973;28;20051;-69
2023/01/11 02:21:56;;;;;;;0.52;0.20;;;;;;;6.32;65.47;99211.03;3113523;28;20049;-69
2023/01/11 02:23:58;;;;;;;0.85;0.30;;;;;;;6.32;65.28;99211.03;3110648;28;20057;-70
2023/01/11 02:26:03;;;;;;;1.80;0.52;;;;;;;6.32;65.21;99215.34;3110529;28;20232;-69
2023/01/11 02:27:50;;;;;;;0.50;0.28;;;;;;;6.31;65.04;99218.84;3110420;28;20879;-70
2023/01/11 02:29:32;;;;;;;0.85;0.47;;;;;;;6.33;65.15;99219.63;3110439;28;20060;-69
2023/01/11 02:31:11;;;;;;;0.52;0.20;;;;;;;6.21;64.84;99197.69;3110612;28;20059;-70
2023/01/11 02:32:51;;;;;;;1.17;0.30;;;;;;;6.35;64.72;99223.84;3110475;28;20077;-69
2023/01/11 02:34:34;;;;;;;0.80;0.50;;;;;;;6.36;64.54;99227.28;3110707;28;20049;-70
2023/01/11 02:36:13;;;;;;;1.88;0.60;;;;;;;5.83;64.73;99137.84;3111364;28;20049;-70
2023/01/11 02:37:53;;;;;;;1.80;0.77;;;;;;;6.39;64.73;99232.34;3110169;28;20494;-70
2023/01/11 02:39:32;;;;;;;2.63;0.60;;;;;;;6.35;64.76;99231.59;3110494;28;20076;-70
2023/01/11 02:41:14;;;;;;;0.93;0.30;;;;;;;6.41;65.00;99232.28;3113923;28;20594;-68
2023/01/11 02:45:01;;;;;;;1.30;0.40;;;;;;;6.38;64.71;99241.81;3120535;28;20053;-69
2023/01/11 02:46:39;;;;;;;2.67;0.50;;;;;;;6.40;64.66;99241.78;3118073;28;20057;-70
2023/01/11 02:48:19;;;;;;;1.55;0.40;;;;;;;6.41;64.63;99237.44;3120317;28;20176;-69
2023/01/11 02:49:57;;;;;;;1.08;0.20;;;;;;;6.33;64.75;99224.78;3110564;28;20049;-72
2023/01/11 02:51:38;;;;;;;2.15;0.40;;;;;;;6.38;64.44;99238.41;3119042;28;20115;-71
2023/01/11 02:53:16;;;;;;;0.40;0.20;;;;;;;6.32;64.45;99225.69;3120148;28;20129;-69
2023/01/11 02:54:52;;;;;;;0.73;0.20;;;;;;;6.36;64.25;99222.13;3120151;28;20526;-69
2023/01/11 02:56:27;;;;;;;0.50;0.30;;;;;;;6.36;64.34;99222.97;3120182;28;20053;-69
2023/01/11 02:58:04;;;;;;;0.75;0.40;;;;;;;6.38;64.29;99230.66;3120239;28;20107;-69
2023/01/11 02:59:36;;;;;;;0.88;0.20;;;;;;;6.34;64.23;99217.00;3120231;28;20383;-69
2023/01/11 03:01:08;;;;;;;0.63;0.28;;;;;;;6.35;63.84;99215.25;3120220;28;20176;-69
2023/01/11 03:02:40;;;;;;;0.60;0.30;;;;;;;6.41;63.93;99227.09;3120224;28;20061;-69
2023/01/11 03:04:23;;;;;;;1.15;0.30;;;;;;;6.34;63.88;99216.16;3120278;28;20046;-69
2023/01/11 03:05:59;;;;;;;0.90;0.40;;;;;;;6.42;63.67;99232.22;3120435;28;20110;-69
2023/01/11 03:07:45;;;;;;;0.50;0.28;;;;;;;6.44;63.92;99230.41;3119908;28;20057;-69
2023/01/11 03:09:25;;;;;;;1.02;0.32;;;;;;;6.44;63.73;99222.66;3120155;28;20052;-70
2023/01/11 03:11:03;;;;;;;0.30;0.20;;;;;;;6.44;63.56;99227.81;3120054;28;20478;-69
2023/01/11 03:12:51;;;;;;;0.57;0.32;;;;;;;6.45;63.32;99226.94;3120021;28;20089;-69
2023/01/11 03:14:28;;;;;;;0.85;0.30;;;;;;;6.43;63.35;99228.75;3120254;28;20550;-69
2023/01/11 03:16:23;;;;;;;0.75;0.35;;;;;;;6.44;63.39;99234.75;3120061;28;20103;-69
2023/01/11 03:18:05;;;;;;;0.55;0.30;;;;;;;6.41;63.55;99232.28;3108819;28;20128;-70
2023/01/11 03:19:42;;;;;;;0.73;0.35;;;;;;;6.26;63.86;99206.09;3119984;28;20501;-70
2023/01/11 03:21:25;;;;;;;1.70;0.50;;;;;;;6.40;64.00;99233.19;3118046;28;20695;-69
2023/01/11 03:23:08;;;;;;;2.28;0.60;;;;;;;6.36;64.68;99235.06;3110555;28;20501;-69
2023/01/11 03:24:45;;;;;;;2.55;0.40;;;;;;;6.19;64.76;99204.63;3120124;28;20416;-70
2023/01/11 03:26:25;;;;;;;1.70;0.50;;;;;;;6.28;65.26;99218.97;3120013;28;20307;-71
2023/01/11 03:28:04;;;;;;;2.22;0.50;;;;;;;6.31;65.24;99229.19;3120054;28;20053;-69
2023/01/11 03:29:43;;;;;;;1.30;0.40;;;;;;;6.30;65.43;99240.41;3119509;28;20526;-69
2023/01/11 03:31:20;;;;;;;2.13;0.60;;;;;;;6.29;65.36;99233.56;3119659;28;20115;-68
2023/01/11 03:32:58;;;;;;;1.85;0.50;;;;;;;6.27;65.66;99238.81;3120157;28;20115;-70
2023/01/11 03:34:34;;;;;;;1.48;0.68;;;;;;;6.14;65.64;99222.88;3119899;28;20526;-69
2023/01/11 03:36:17;;;;;;;2.13;0.68;;;;;;;6.24;66.02;99238.06;3120128;28;20053;-69
2023/01/11 03:37:55;;;;;;;2.83;0.82;;;;;;;6.22;66.17;99234.72;3119658;28;20060;-69
2023/01/11 03:39:33;;;;;;;1.45;0.70;;;;;;;6.16;66.67;99235.78;3119856;28;20041;-69
2023/01/11 03:41:10;;;;;;;0.90;0.55;;;;;;;6.08;66.83;99228.28;3119817;28;20060;-69
2023/01/11 03:44:38;;;;;;;2.75;0.75;;;;;;;6.11;67.09;99243.69;3119471;28;20049;-69
2023/01/11 03:46:15;;;;;;;2.45;0.68;;;;;;;6.11;67.04;99246.25;3119842;28;20046;-69
2023/01/11 03:47:46;;;;;;;1.13;0.50;;;;;;;6.08;67.21;99238.63;3119775;28;20057;-70
2023/01/11 03:49:23;;;;;;;1.40;0.70;;;;;;;6.12;67.34;99242.81;3118924;28;20061;-69
2023/01/11 03:50:57;;;;;;;1.83;0.57;;;;;;;6.09;67.23;99244.63;3120164;28;20045;-71
2023/01/11 03:52:34;;;;;;;1.77;0.82;;;;;;;6.09;67.35;99254.97;3119488;28;20053;-69
2023/01/11 03:54:10;;;;;;;2.10;0.73;;;;;;;6.05;67.22;99259.41;3119968;28;20045;-70
2023/01/11 03:55:47;;;;;;;1.02;0.52;;;;;;;6.08;67.35;99264.47;3119678;28;20139;-70
2023/01/11 03:57:23;;;;;;;1.73;0.60;;;;;;;6.06;67.28;99266.28;3119780;28;20122;-70
2023/01/11 03:58:54;;;;;;;1.27;0.60;;;;;;;6.07;67.32;99270.53;3119574;28;20548;-69
2023/01/11 04:00:28;;;;;;;2.05;0.80;;;;;;;6.05;67.24;99267.16;3119461;28;20132;-70
2023/01/11 04:02:02;;;;;;;1.60;0.80;;;;;;;6.10;67.28;99272.19;3119925;28;20045;-69
2023/01/11 04:03:33;;;;;;;1.52;0.60;;;;;;;6.04;67.41;99278.41;3118390;28;20477;-70
2023/01/11 04:05:05;;;;;;;2.00;0.60;;;;;;;6.08;67.15;99281.72;3109803;28;20140;-70
2023/01/11 04:06:38;;;;;;;1.48;0.60;;;;;;;6.07;67.26;99292.97;3119659;28;20057;-70
2023/01/11 04:08:09;;;;;;;1.58;0.63;;;;;;;6.08;67.33;99285.16;3119617;28;20053;-70
2023/01/11 04:09:41;;;;;;;2.05;0.65;;;;;;;6.09;67.31;99286.84;3119469;28;20418;-70
2023/01/11 04:11:12;;;;;;;1.38;0.60;;;;;;;6.07;67.29;99287.81;3119300;28;20545;-69
2023/01/11 04:12:46;;;;;;;1.50;0.60;;;;;;;5.57;67.01;99205.09;3119566;28;20053;-70
2023/01/11 04:14:18;;;;;;;1.35;0.80;;;;;;;6.09;67.00;99286.00;3119539;28;20083;-70
2023/01/11 04:15:51;;;;;;;1.02;0.40;;;;;;;6.04;67.00;99278.41;3119566;28;20446;-70
2023/01/11 04:17:24;;;;;;;1.63;0.90;;;;;;;5.91;66.86;99264.19;3119913;28;20092;-70
2023/01/11 04:18:56;;;;;;;0.95;0.38;;;;;;;6.09;67.12;99302.38;3119827;28;20056;-69
2023/01/11 04:20:27;;;;;;;1.65;0.50;;;;;;;6.11;66.99;99300.56;3119403;28;20049;-70
2023/01/11 04:21:59;;;;;;;2.67;0.47;;;;;;;5.99;66.81;99280.31;3111684;28;20107;-70
2023/01/11 04:23:30;;;;;;;1.38;0.60;;;;;;;6.14;66.77;99299.59;3114633;28;20141;-70
2023/01/11 04:25:01;;;;;;;0.90;0.50;;;;;;;6.13;66.80;99303.94;3119864;28;20045;-70
2023/01/11 04:26:33;;;;;;;0.90;0.32;;;;;;;6.10;66.72;99296.28;3121166;28;20049;-70
2023/01/11 04:28:04;;;;;;;0.90;0.50;;;;;;;6.07;66.53;99295.56;3127346;28;20054;-70
2023/01/11 04:29:36;;;;;;;1.02;0.50;;;;;;;6.14;66.63;99300.44;3120046;28;20433;-72
2023/01/11 04:31:07;;;;;;;0.73;0.40;;;;;;;6.12;66.53;99302.25;3119938;28;20053;-69
2023/01/11 04:32:40;;;;;;;1.63;0.77;;;;;;;6.12;66.56;99307.44;3119529;28;20046;-70
2023/01/11 04:34:11;;;;;;;1.38;0.40;;;;;;;6.11;66.44;99303.13;3118947;28;20065;-70
2023/01/11 04:35:43;;;;;;;1.20;0.40;;;;;;;6.10;66.62;99304.03;3119340;28;20718;-70
2023/01/11 04:37:15;;;;;;;1.30;0.60;;;;;;;6.12;66.45;99303.97;3119561;28;20144;-70
2023/01/11 04:38:46;;;;;;;1.10;0.70;;;;;;;6.12;66.39;99312.59;3119457;28;20459;-70
2023/01/11 04:40:19;;;;;;;4.25;0.63;;;;;;;6.13;66.70;99314.28;3119493;28;20053;-70
2023/01/11 04:43:40;;;;;;;1.67;0.70;;;;;;;6.11;66.75;99321.22;3113666;28;20057;-71
2023/01/11 04:45:11;;;;;;;1.27;0.70;;;;;;;6.12;66.70;99315.19;3111670;28;20061;-70
2023/01/11 04:46:42;;;;;;;1.45;0.60;;;;;;;6.13;66.76;99321.19;3121801;28;20063;-70
2023/01/11 04:48:16;;;;;;;1.48;0.70;;;;;;;6.13;66.73;99329.78;3121808;28;20069;-69
2023/01/11 04:49:48;;;;;;;1.50;0.60;;;;;;;6.13;66.81;99326.38;3111996;28;20054;-70
2023/01/11 04:51:20;;;;;;;2.05;0.65;;;;;;;6.12;66.97;99335.88;3118790;28;20045;-70
2023/01/11 04:52:52;;;;;;;1.42;0.63;;;;;;;6.13;66.83;99334.97;3121473;28;20053;-70
2023/01/11 04:54:23;;;;;;;1.80;0.98;;;;;;;6.12;66.91;99337.59;3121700;28;20051;-70
2023/01/11 04:55:59;;;;;;;1.35;0.70;;;;;;;6.11;66.73;99341.91;3121755;28;20084;-71
2023/01/11 04:57:31;;;;;;;2.13;0.60;;;;;;;6.10;66.85;99337.66;3121590;28;20046;-70
2023/01/11 04:59:02;;;;;;;2.42;0.90;;;;;;;6.06;66.82;99337.78;3121447;28;20111;-70
2023/01/11 05:00:34;;;;;;;2.58;0.80;;;;;;;6.12;66.79;99342.75;3120959;28;20102;-69
2023/01/11 05:02:06;;;;;;;4.85;1.45;;;;;;;6.12;66.75;99341.03;3121864;28;20508;-69
2023/01/11 05:03:39;;;;;;;3.85;1.40;;;;;;;6.11;66.79;99335.91;3120459;28;20115;-70
2023/01/11 05:05:11;;;;;;;3.15;1.45;;;;;;;6.13;66.87;99345.31;3121652;28;20048;-71
2023/01/11 05:06:42;;;;;;;1.50;0.90;;;;;;;6.14;66.66;99340.97;3121599;28;20045;-71
2023/01/11 05:08:14;;;;;;;2.08;1.02;;;;;;;6.08;66.55;99323.94;3121319;28;20053;-71
2023/01/11 05:09:46;;;;;;;4.35;1.45;;;;;;;6.06;66.38;99330.91;3121442;28;20073;-74
2023/01/11 05:11:18;;;;;;;3.17;0.80;;;;;;;6.14;66.68;99340.97;3121113;28;20064;-71
2023/01/11 05:12:51;;;;;;;1.77;0.82;;;;;;;6.14;66.54;99340.97;3120926;28;20479;-70
2023/01/11 05:14:23;;;;;;;1.60;0.73;;;;;;;6.12;66.49;99341.03;3121156;28;20577;-69
2023/01/11 05:15:55;;;;;;;3.05;0.95;;;;;;;6.11;66.31;99341.91;3120590;28;20569;-72
2023/01/11 05:17:27;;;;;;;2.67;0.90;;;;;;;6.13;66.43;99341.88;3120476;28;20088;-70
2023/01/11 05:19:00;;;;;;;1.80;0.82;;;;;;;5.98;66.43;99309.63;3120238;28;20049;-72
2023/01/11 05:20:32;;;;;;;;;;;;;;;5.87;66.52;99306.53;3120892;28;20053;-68
2023/01/11 05:22:04;;;;;;;2.90;1.10;;;;;;;6.06;66.47;99341.25;3118575;28;20392;-72
2023/01/11 05:23:36;;;;;;;1.98;0.90;;;;;;;6.08;66.54;99341.19;3120354;28;20058;-72
2023/01/11 05:25:11;;;;;;;2.33;1.10;;;;;;;6.06;66.45;99336.09;3120966;28;20045;-70
2023/01/11 05:26:45;;;;;;;2.58;1.00;;;;;;;5.95;66.47;99319.25;3120862;28;20587;-73
2023/01/11 05:28:15;;;;;;;2.13;0.88;;;;;;;6.09;66.44;99342.84;3120972;28;20080;-68
2023/01/11 05:29:47;;;;;;;2.90;1.20;;;;;;;6.04;66.35;99340.44;3120937;28;20045;-67
2023/01/11 05:31:19;;;;;;;2.50;1.10;;;;;;;6.11;66.54;99348.84;3121071;28;20584;-69
2023/01/11 05:32:51;;;;;;;2.63;1.13;;;;;;;6.10;66.40;99352.31;3121218;28;20672;-73
2023/01/11 05:34:24;;;;;;;2.13;1.02;;;;;;;6.11;66.20;99354.00;3121163;28;20080;-69
2023/01/11 05:36:00;;;;;;;1.88;1.00;;;;;;;6.10;66.36;99353.16;3121576;28;20111;-69
2023/01/11 05:37:32;;;;;;;1.58;0.88;;;;;;;6.10;66.39;99360.91;3121131;28;20061;-70
2023/01/11 05:39:04;;;;;;;1.98;1.00;;;;;;;6.12;66.39;99358.25;3121025;28;20195;-71
2023/01/11 05:40:36;;;;;;;4.47;1.05;;;;;;;6.12;66.34;99351.38;3120960;28;20045;-69
2023/01/11 05:42:07;;;;;;;2.15;1.10;;;;;;;6.12;66.20;99353.09;3120815;28;20045;-72
2023/01/11 05:45:32;;;;;;;3.55;1.40;;;;;;;6.05;66.18;99349.03;3116753;28;20147;-72
2023/01/11 05:47:03;;;;;;;2.75;1.55;;;;;;;6.09;66.31;99363.53;3109218;28;20054;-75
2023/01/11 05:48:35;;;;;;;28.85;11.70;;;;;;;5.79;66.31;99324.03;3120503;28;20057;-70
2023/01/11 05:50:09;;;;;;;8.40;3.97;;;;;;;6.04;66.24;99366.28;3120064;28;20050;-67
2023/01/11 05:51:43;;;;;;;64.03;27.33;;;;;;;5.35;66.41;99256.59;3121178;28;20786;-72
2023/01/11 05:53:14;;;;;;;;;;;;;;;6.04;66.24;99381.81;3120756;28;20131;-75
2023/01/11 05:54:46;;;;;;;5.22;2.97;;;;;;;5.88;66.54;99355.56;3121193;28;19925;-75
2023/01/11 05:56:19;;;;;;;3.08;1.60;;;;;;;5.97;66.28;99374.28;3121275;28;20061;-75
2023/01/11 05:57:51;;;;;;;2.97;1.30;;;;;;;6.05;66.44;99385.22;3121510;28;20076;-73
2023/01/11 05:59:23;;;;;;;2.25;1.35;;;;;;;6.03;66.39;99382.69;3122701;28;20049;-71
2023/01/11 06:00:56;;;;;;;2.53;1.40;;;;;;;6.03;66.28;99380.09;3122423;28;20111;-67
2023/01/11 06:02:27;;;;;;;3.40;1.70;;;;;;;5.98;66.32;99381.19;3119349;28;20104;-70
2023/01/11 06:04:00;;;;;;;5.57;2.47;;;;;;;6.03;66.32;99381.84;3115229;28;20045;-70
2023/01/11 06:05:34;;;;;;;4.57;2.10;;;;;;;6.02;66.23;99390.50;3120927;28;20060;-70
2023/01/11 06:07:08;;;;;;;7.45;2.00;;;;;;;5.90;66.41;99369.28;3120907;28;20052;-70
2023/01/11 06:08:40;;;;;;;3.28;1.40;;;;;;;6.00;66.30;99393.13;3120807;28;20052;-70
2023/01/11 06:10:12;;;;;;;5.45;1.85;;;;;;;5.99;66.42;99388.84;3120930;28;20395;-70
2023/01/11 06:11:44;;;;;;;3.08;1.42;;;;;;;6.02;66.34;99390.50;3120673;28;20068;-69
2023/01/11 06:13:28;;;;;;;3.30;1.63;;;;;;;6.03;66.35;99398.19;3121084;28;20441;-70
2023/01/11 06:15:00;;;;;;;3.83;1.20;;;;;;;6.03;66.20;99394.75;3120705;28;20045;-71
2023/01/11 06:16:32;;;;;;;4.25;1.67;;;;;;;5.88;66.11;99376.25;3120766;28;20591;-69
2023/01/11 06:18:03;;;;;;;2.20;1.20;;;;;;;6.06;66.23;99395.53;3121128;28;20045;-69
2023/01/11 06:19:35;;;;;;;3.50;1.27;;;;;;;6.09;66.04;99405.78;3120746;28;20198;-70
2023/01/11 06:21:08;;;;;;;3.67;1.52;;;;;;;6.09;65.88;99399.72;3120233;28;20061;-70
2023/01/11 06:22:40;;;;;;;2.70;1.15;;;;;;;6.08;65.97;99398.91;3108944;28;20062;-69
2023/01/11 06:24:12;;;;;;;3.83;1.20;;;;;;;5.97;65.75;99395.81;3121085;28;20537;-72
2023/01/11 06:25:44;;;;;;;3.20;1.50;;;;;;;6.10;65.64;99404.88;3120735;28;20049;-70
2023/01/11 06:27:17;;;;;;;2.15;1.08;;;;;;;6.11;65.76;99409.13;3120683;28;20452;-70
2023/01/11 06:28:49;;;;;;;3.77;1.20;;;;;;;6.11;65.82;99411.72;3120656;28;20061;-69
2023/01/11 06:30:24;;;;;;;3.42;1.35;;;;;;;5.93;65.70;99387.31;3120806;28;20057;-69
2023/01/11 06:31:57;;;;;;;5.30;1.65;;;;;;;6.08;65.51;99409.22;3120693;28;20534;-70
2023/01/11 06:33:28;;;;;;;7.00;1.95;;;;;;;5.98;65.62;99392.34;3120009;28;20585;-70
2023/01/11 06:35:00;;;;;;;4.28;1.95;;;;;;;6.09;65.73;99404.91;3122446;28;20049;-70
2023/01/11 06:36:34;;;;;;;5.50;2.05;;;;;;;6.13;65.65;99407.34;3120638;28;20148;-71
2023/01/11 06:38:05;;;;;;;;;;;;;;;6.10;65.58;99419.53;3120543;28;20450;-69
2023/01/11 06:39:37;;;;;;;5.30;2.00;;;;;;;6.09;65.80;99421.28;3120457;28;19987;-70
2023/01/11 06:41:10;;;;;;;7.00;2.60;;;;;;;6.01;65.63;99399.16;3120281;28;20054;-70
2023/01/11 06:42:42;;;;;;;4.50;2.13;;;;;;;6.05;65.47;99409.34;3120564;28;20048;-70
2023/01/11 06:44:14;;;;;;;6.47;2.45;;;;;;;6.07;65.53;99404.97;3120316;28;20045;-70
2023/01/11 06:45:46;;;;;;;3.17;1.75;;;;;;;6.12;65.67;99421.19;3120215;28;20577;-70
2023/01/11 06:47:17;;;;;;;3.65;1.75;;;;;;;6.04;65.44;99406.81;3120339;28;20052;-69
2023/01/11 06:48:49;;;;;;;4.80;1.50;;;;;;;5.48;65.46;99314.72;3118556;28;20446;-70
2023/01/11 06:50:20;;;;;;;4.13;2.00;;;;;;;6.02;65.23;99412.03;3110007;28;20057;-69
2023/01/11 06:51:53;;;;;;;3.03;1.50;;;;;;;6.09;65.50;99426.44;3120424;28;20077;-69
2023/01/11 06:53:27;;;;;;;4.05;1.90;;;;;;;6.07;65.38;99438.56;3120437;28;20442;-71
2023/01/11 06:54:58;;;;;;;;;;;;;;;6.04;65.44;99438.69;3120713;28;20445;-69
2023/01/11 06:56:30;;;;;;;8.75;2.72;;;;;;;6.03;65.65;99441.28;3120066;28;19924;-70
2023/01/11 06:58:02;;;;;;;5.90;2.40;;;;;;;6.07;65.64;99448.06;3120494;28;20045;-69
2023/01/11 06:59:34;;;;;;;5.28;2.45;;;;;;;6.06;65.76;99446.38;3120165;28;20054;-71
2023/01/11 07:01:06;;;;;;;6.65;2.75;;;;;;;6.02;65.74;99437.88;3120355;28;20202;-69
2023/01/11 07:02:38;;;;;;;4.28;2.28;;;;;;;6.05;65.88;99455.03;3120229;28;20045;-70
2023/01/11 07:04:10;;;;;;;4.10;2.10;;;;;;;5.87;66.11;99436.59;3120262;28;20061;-70
2023/01/11 07:05:43;;;;;;;5.32;2.10;;;;;;;6.03;65.93;99459.38;3120370;28;20064;-71
2023/01/11 07:07:16;;;;;;;6.65;2.72;;;;;;;6.00;65.99;99462.91;3120274;28;20128;-70
2023/01/11 07:08:48;;;;;;;6.25;2.38;;;;;;;5.97;66.25;99469.94;3119994;28;20049;-70
2023/01/11 07:10:20;;;;;;;5.55;2.50;;;;;;;5.95;66.37;99470.00;3120066;28;20053;-69
2023/01/11 07:11:51;;;;;;;8.73;3.13;;;;;;;5.95;66.56;99476.91;3120244;28;20095;-70
2023/01/11 07:13:23;;;;;;;5.00;2.45;;;;;;;5.90;66.37;99466.66;3120300;28;20168;-69
2023/01/11 07:14:55;;;;;;;6.85;3.15;;;;;;;5.93;66.76;99471.78;3120364;28;20049;-70
2023/01/11 07:16:27;;;;;;;5.50;2.80;;;;;;;5.88;66.79;99463.28;3119960;28;20050;-69
2023/01/11 07:18:00;;;;;;;8.48;3.45;;;;;;;5.96;66.79;99474.25;3120413;28;20510;-70
2023/01/11 07:19:32;;;;;;;8.02;3.28;;;;;;;5.99;66.85;99483.66;3119961;28;20091;-70
2023/01/11 07:21:04;;;;;;;9.90;3.33;;;;;;;6.02;66.87;99478.38;3119597;28;20135;-69
2023/01/11 07:22:37;;;;;;;9.95;3.55;;;;;;;6.03;66.95;99467.97;3107781;28;20119;-70
2023/01/11 07:24:09;;;;;;;10.55;4.28;;;;;;;6.03;67.14;99472.31;3120254;28;20485;-70
2023/01/11 07:25:41;;;;;;;12.68;4.00;;;;;;;6.18;67.00;99476.97;3117287;28;20053;-70
2023/01/11 07:27:12;;;;;;;13.32;4.30;;;;;;;6.29;66.80;99471.47;3119713;28;20110;-70
2023/01/11 07:28:44;;;;;;;11.15;3.80;;;;;;;6.52;66.56;99476.72;3119776;28;20175;-70
2023/01/11 07:30:17;;;;;;;9.00;3.83;;;;;;;6.77;66.21;99483.66;3119742;28;20128;-71
2023/01/11 07:31:49;;;;;;;9.20;3.90;;;;;;;7.05;65.93;99474.03;3119259;28;20060;-71
2023/01/11 07:33:22;;;;;;;12.18;4.32;;;;;;;7.46;65.76;99483.78;3120000;28;20361;-72
2023/01/11 07:34:54;;;;;;;13.57;5.30;;;;;;;7.80;64.95;99478.13;3119608;28;20050;-69
2023/01/11 07:36:26;;;;;;;13.52;4.18;;;;;;;8.12;64.20;99495.00;3119951;28;20111;-74
2023/01/11 07:37:59;;;;;;;14.10;4.45;;;;;;;8.43;63.35;99491.22;3119906;28;20544;-73
2023/01/11 07:39:31;;;;;;;15.95;5.30;;;;;;;8.64;62.62;99494.69;3110464;28;20046;-72
2023/01/11 07:43:10;;;;;;;19.38;5.82;;;;;;;8.72;62.15;99505.56;3112433;28;20095;-67
2023/01/11 07:44:43;;;;;;;13.75;4.53;;;;;;;8.70;61.26;99515.19;3119968;28;20518;-69
2023/01/11 07:46:15;;;;;;;15.35;5.32;;;;;;;8.70;61.27;99514.34;3119684;28;20056;-69
2023/01/11 07:47:49;;;;;;;15.80;4.93;;;;;;;8.73;61.58;99509.03;3119568;28;20114;-70
2023/01/11 07:49:21;;;;;;;14.30;4.68;;;;;;;8.79;61.25;99519.97;3113944;28;20532;-69